sensor_id;sensor_type;location;lat;lon;timestamp;pressure;altitude;pressure_sealevel;temperature
20092;BMP180;10205;49.678;6.560;2022-07-06T00:00:04;100750.00;;;26.00
20092;BMP180;10205;49.678;6.560;2022-07-06T00:02:32;100755.00;;;26.00
20092;BMP180;10205;49.678;6.560;2022-07-06T00:04:59;100741.00;;;26.00
20092;BMP180;10205;49.678;6.560;2022-07-06T00:07:26;100737.00;;;26.00
20092;BMP180;10205;49.678;6.560;2022-07-06T00:09:53;100744.00;;;25.90
20092;BMP180;10205;49.678;6.560;2022-07-06T00:12:20;100751.00;;;25.90
20092;BMP180;10205;49.678;6.560;2022-07-06T00:14:47;100738.00;;;25.90
20092;BMP180;10205;49.678;6.560;2022-07-06T00:17:16;100740.00;;;25.90
20092;BMP180;10205;49.678;6.560;2022-07-06T00:19:43;100742.00;;;25.80
20092;BMP180;10205;49.678;6.560;2022-07-06T00:22:10;100743.00;;;25.80
20092;BMP180;10205;49.678;6.560;2022-07-06T00:24:37;100743.00;;;25.80
20092;BMP180;10205;49.678;6.560;2022-07-06T00:27:04;100743.00;;;25.80
20092;BMP180;10205;49.678;6.560;2022-07-06T00:29:31;100757.00;;;25.80
20092;BMP180;10205;49.678;6.560;2022-07-06T00:31:58;100742.00;;;25.70
20092;BMP180;10205;49.678;6.560;2022-07-06T00:34:27;100740.00;;;25.70
20092;BMP180;10205;49.678;6.560;2022-07-06T00:36:54;100755.00;;;25.70
20092;BMP180;10205;49.678;6.560;2022-07-06T00:39:21;100758.00;;;25.70
20092;BMP180;10205;49.678;6.560;2022-07-06T00:41:55;100756.00;;;25.70
20092;BMP180;10205;49.678;6.560;2022-07-06T00:44:22;100752.00;;;25.60
20092;BMP180;10205;49.678;6.560;2022-07-06T00:46:49;100758.00;;;25.60
20092;BMP180;10205;49.678;6.560;2022-07-06T00:49:17;100751.00;;;25.60
20092;BMP180;10205;49.678;6.560;2022-07-06T00:52:00;100749.00;;;25.50
20092;BMP180;10205;49.678;6.560;2022-07-06T00:54:30;100743.00;;;25.50
20092;BMP180;10205;49.678;6.560;2022-07-06T00:56:58;100743.00;;;25.50
20092;BMP180;10205;49.678;6.560;2022-07-06T00:59:28;100727.00;;;25.40
20092;BMP180;10205;49.678;6.560;2022-07-06T01:01:55;100737.00;;;25.40
20092;BMP180;10205;49.678;6.560;2022-07-06T01:04:22;100745.00;;;25.30
20092;BMP180;10205;49.678;6.560;2022-07-06T01:06:50;100742.00;;;25.30
20092;BMP180;10205;49.678;6.560;2022-07-06T01:09:18;100747.00;;;25.30
20092;BMP180;10205;49.678;6.560;2022-07-06T01:11:46;100754.00;;;25.20
20092;BMP180;10205;49.678;6.560;2022-07-06T01:14:14;100733.00;;;25.20
20092;BMP180;10205;49.678;6.560;2022-07-06T01:16:43;100761.00;;;25.20
20092;BMP180;10205;49.678;6.560;2022-07-06T01:19:10;100752.00;;;25.10
20092;BMP180;10205;49.678;6.560;2022-07-06T01:21:39;100753.00;;;25.10
20092;BMP180;10205;49.678;6.560;2022-07-06T01:24:07;100750.00;;;25.00
20092;BMP180;10205;49.678;6.560;2022-07-06T01:26:34;100751.00;;;25.00
20092;BMP180;10205;49.678;6.560;2022-07-06T01:29:01;100741.00;;;25.00
20092;BMP180;10205;49.678;6.560;2022-07-06T01:31:29;100750.00;;;24.90
20092;BMP180;10205;49.678;6.560;2022-07-06T01:33:57;100743.00;;;24.80
20092;BMP180;10205;49.678;6.560;2022-07-06T01:36:24;100741.00;;;24.70
20092;BMP180;10205;49.678;6.560;2022-07-06T01:38:55;100745.00;;;24.60
20092;BMP180;10205;49.678;6.560;2022-07-06T01:41:24;100746.00;;;24.60
20092;BMP180;10205;49.678;6.560;2022-07-06T01:43:51;100741.00;;;24.50
20092;BMP180;10205;49.678;6.560;2022-07-06T01:46:19;100743.00;;;24.50
20092;BMP180;10205;49.678;6.560;2022-07-06T01:48:47;100743.00;;;24.40
20092;BMP180;10205;49.678;6.560;2022-07-06T01:51:14;100741.00;;;24.20
20092;BMP180;10205;49.678;6.560;2022-07-06T01:53:42;100751.00;;;24.00
20092;BMP180;10205;49.678;6.560;2022-07-06T01:56:11;100748.00;;;23.80
20092;BMP180;10205;49.678;6.560;2022-07-06T01:58:39;100759.00;;;23.70
20092;BMP180;10205;49.678;6.560;2022-07-06T02:01:11;100722.00;;;23.50
20092;BMP180;10205;49.678;6.560;2022-07-06T02:03:38;100756.00;;;23.30
20092;BMP180;10205;49.678;6.560;2022-07-06T02:06:07;100748.00;;;23.20
20092;BMP180;10205;49.678;6.560;2022-07-06T02:08:35;100737.00;;;23.10
20092;BMP180;10205;49.678;6.560;2022-07-06T02:11:03;100742.00;;;23.00
20092;BMP180;10205;49.678;6.560;2022-07-06T02:13:34;100754.00;;;22.90
20092;BMP180;10205;49.678;6.560;2022-07-06T02:16:02;100756.00;;;22.80
20092;BMP180;10205;49.678;6.560;2022-07-06T02:18:29;100765.00;;;22.70
20092;BMP180;10205;49.678;6.560;2022-07-06T02:20:57;100749.00;;;22.70
20092;BMP180;10205;49.678;6.560;2022-07-06T02:23:25;100753.00;;;22.70
20092;BMP180;10205;49.678;6.560;2022-07-06T02:25:53;100753.00;;;22.70
20092;BMP180;10205;49.678;6.560;2022-07-06T02:28:20;100754.00;;;22.80
20092;BMP180;10205;49.678;6.560;2022-07-06T02:30:48;100758.00;;;22.80
20092;BMP180;10205;49.678;6.560;2022-07-06T02:33:16;100762.00;;;22.90
20092;BMP180;10205;49.678;6.560;2022-07-06T02:35:43;100758.00;;;22.90
20092;BMP180;10205;49.678;6.560;2022-07-06T02:38:10;100772.00;;;22.90
20092;BMP180;10205;49.678;6.560;2022-07-06T02:40:38;100745.00;;;22.90
20092;BMP180;10205;49.678;6.560;2022-07-06T02:43:05;100774.00;;;22.90
20092;BMP180;10205;49.678;6.560;2022-07-06T02:45:33;100781.00;;;22.90
20092;BMP180;10205;49.678;6.560;2022-07-06T02:48:01;100777.00;;;22.90
20092;BMP180;10205;49.678;6.560;2022-07-06T02:50:29;100779.00;;;23.00
20092;BMP180;10205;49.678;6.560;2022-07-06T02:52:56;100778.00;;;22.90
20092;BMP180;10205;49.678;6.560;2022-07-06T02:55:24;100774.00;;;23.00
20092;BMP180;10205;49.678;6.560;2022-07-06T02:57:51;100785.00;;;23.00
20092;BMP180;10205;49.678;6.560;2022-07-06T03:00:19;100785.00;;;23.00
20092;BMP180;10205;49.678;6.560;2022-07-06T03:02:46;100787.00;;;23.00
20092;BMP180;10205;49.678;6.560;2022-07-06T03:05:14;100784.00;;;23.00
20092;BMP180;10205;49.678;6.560;2022-07-06T03:07:41;100784.00;;;23.00
20092;BMP180;10205;49.678;6.560;2022-07-06T03:10:08;100788.00;;;22.90
20092;BMP180;10205;49.678;6.560;2022-07-06T03:12:36;100790.00;;;22.90
20092;BMP180;10205;49.678;6.560;2022-07-06T03:15:03;100787.00;;;22.90
20092;BMP180;10205;49.678;6.560;2022-07-06T03:17:30;100796.00;;;22.90
20092;BMP180;10205;49.678;6.560;2022-07-06T03:19:58;100789.00;;;22.90
20092;BMP180;10205;49.678;6.560;2022-07-06T03:22:26;100794.00;;;22.90
20092;BMP180;10205;49.678;6.560;2022-07-06T03:24:53;100795.00;;;22.90
20092;BMP180;10205;49.678;6.560;2022-07-06T03:27:20;100797.00;;;22.90
20092;BMP180;10205;49.678;6.560;2022-07-06T03:29:47;100797.00;;;22.90
20092;BMP180;10205;49.678;6.560;2022-07-06T03:32:14;100801.00;;;22.90
20092;BMP180;10205;49.678;6.560;2022-07-06T03:34:41;100797.00;;;22.80
20092;BMP180;10205;49.678;6.560;2022-07-06T03:37:09;100802.00;;;22.80
20092;BMP180;10205;49.678;6.560;2022-07-06T03:39:37;100797.00;;;22.80
20092;BMP180;10205;49.678;6.560;2022-07-06T03:42:04;100796.00;;;22.80
20092;BMP180;10205;49.678;6.560;2022-07-06T03:44:31;100799.00;;;22.80
20092;BMP180;10205;49.678;6.560;2022-07-06T03:46:59;100801.00;;;22.70
20092;BMP180;10205;49.678;6.560;2022-07-06T03:49:26;100807.00;;;22.70
20092;BMP180;10205;49.678;6.560;2022-07-06T03:51:53;100802.00;;;22.70
20092;BMP180;10205;49.678;6.560;2022-07-06T03:54:21;100807.00;;;22.70
20092;BMP180;10205;49.678;6.560;2022-07-06T03:56:49;100807.00;;;22.70
20092;BMP180;10205;49.678;6.560;2022-07-06T03:59:16;100805.00;;;22.60
20092;BMP180;10205;49.678;6.560;2022-07-06T04:01:44;100805.00;;;22.60
20092;BMP180;10205;49.678;6.560;2022-07-06T04:04:11;100803.00;;;22.60
20092;BMP180;10205;49.678;6.560;2022-07-06T04:06:38;100808.00;;;22.60
20092;BMP180;10205;49.678;6.560;2022-07-06T04:09:05;100821.00;;;22.50
20092;BMP180;10205;49.678;6.560;2022-07-06T04:11:32;100813.00;;;22.50
20092;BMP180;10205;49.678;6.560;2022-07-06T04:14:01;100811.00;;;22.50
20092;BMP180;10205;49.678;6.560;2022-07-06T04:16:28;100812.00;;;22.40
20092;BMP180;10205;49.678;6.560;2022-07-06T04:18:55;100821.00;;;22.40
20092;BMP180;10205;49.678;6.560;2022-07-06T04:21:22;100820.00;;;22.30
20092;BMP180;10205;49.678;6.560;2022-07-06T04:23:49;100818.00;;;22.20
20092;BMP180;10205;49.678;6.560;2022-07-06T04:26:16;100821.00;;;22.20
20092;BMP180;10205;49.678;6.560;2022-07-06T04:28:43;100816.00;;;22.10
20092;BMP180;10205;49.678;6.560;2022-07-06T04:31:12;100819.00;;;22.10
20092;BMP180;10205;49.678;6.560;2022-07-06T04:33:41;100825.00;;;22.00
20092;BMP180;10205;49.678;6.560;2022-07-06T04:36:09;100819.00;;;22.00
20092;BMP180;10205;49.678;6.560;2022-07-06T04:38:36;100844.00;;;22.00
20092;BMP180;10205;49.678;6.560;2022-07-06T04:41:03;100836.00;;;21.90
20092;BMP180;10205;49.678;6.560;2022-07-06T04:43:31;100849.00;;;21.90
20092;BMP180;10205;49.678;6.560;2022-07-06T04:45:58;100846.00;;;21.90
20092;BMP180;10205;49.678;6.560;2022-07-06T04:48:28;100837.00;;;21.90
20092;BMP180;10205;49.678;6.560;2022-07-06T04:50:55;100847.00;;;21.90
20092;BMP180;10205;49.678;6.560;2022-07-06T04:53:22;100848.00;;;21.80
20092;BMP180;10205;49.678;6.560;2022-07-06T04:55:49;100829.00;;;21.80
20092;BMP180;10205;49.678;6.560;2022-07-06T04:58:16;100862.00;;;21.80
20092;BMP180;10205;49.678;6.560;2022-07-06T05:00:43;100855.00;;;21.70
20092;BMP180;10205;49.678;6.560;2022-07-06T05:03:10;100857.00;;;21.70
20092;BMP180;10205;49.678;6.560;2022-07-06T05:05:39;100858.00;;;21.60
20092;BMP180;10205;49.678;6.560;2022-07-06T05:08:06;100865.00;;;21.50
20092;BMP180;10205;49.678;6.560;2022-07-06T05:10:33;100869.00;;;21.50
20092;BMP180;10205;49.678;6.560;2022-07-06T05:13:00;100871.00;;;21.40
20092;BMP180;10205;49.678;6.560;2022-07-06T05:15:27;100862.00;;;21.30
20092;BMP180;10205;49.678;6.560;2022-07-06T05:17:55;100861.00;;;21.20
20092;BMP180;10205;49.678;6.560;2022-07-06T05:20:23;100860.00;;;21.00
20092;BMP180;10205;49.678;6.560;2022-07-06T05:22:51;100858.00;;;20.90
20092;BMP180;10205;49.678;6.560;2022-07-06T05:25:18;100865.00;;;20.90
20092;BMP180;10205;49.678;6.560;2022-07-06T05:27:45;100861.00;;;20.80
20092;BMP180;10205;49.678;6.560;2022-07-06T05:30:13;100873.00;;;20.70
20092;BMP180;10205;49.678;6.560;2022-07-06T05:32:41;100871.00;;;20.70
20092;BMP180;10205;49.678;6.560;2022-07-06T05:35:08;100872.00;;;20.60
20092;BMP180;10205;49.678;6.560;2022-07-06T05:37:35;100866.00;;;20.50
20092;BMP180;10205;49.678;6.560;2022-07-06T05:40:05;100862.00;;;20.40
20092;BMP180;10205;49.678;6.560;2022-07-06T05:42:32;100864.00;;;20.30
20092;BMP180;10205;49.678;6.560;2022-07-06T05:44:59;100845.00;;;20.20
20092;BMP180;10205;49.678;6.560;2022-07-06T05:47:27;100859.00;;;20.20
20092;BMP180;10205;49.678;6.560;2022-07-06T05:50:11;100858.00;;;20.10
20092;BMP180;10205;49.678;6.560;2022-07-06T05:52:39;100861.00;;;20.00
20092;BMP180;10205;49.678;6.560;2022-07-06T05:55:10;100859.00;;;19.90
20092;BMP180;10205;49.678;6.560;2022-07-06T05:57:38;100833.00;;;19.90
20092;BMP180;10205;49.678;6.560;2022-07-06T06:00:08;100866.00;;;19.80
20092;BMP180;10205;49.678;6.560;2022-07-06T06:02:40;100856.00;;;19.80
20092;BMP180;10205;49.678;6.560;2022-07-06T06:05:09;100850.00;;;19.70
20092;BMP180;10205;49.678;6.560;2022-07-06T06:07:38;100854.00;;;19.70
20092;BMP180;10205;49.678;6.560;2022-07-06T06:10:09;100859.00;;;19.70
20092;BMP180;10205;49.678;6.560;2022-07-06T06:12:37;100850.00;;;19.70
20092;BMP180;10205;49.678;6.560;2022-07-06T06:15:06;100853.00;;;19.70
20092;BMP180;10205;49.678;6.560;2022-07-06T06:17:35;100860.00;;;19.80
20092;BMP180;10205;49.678;6.560;2022-07-06T06:20:03;100838.00;;;19.80
20092;BMP180;10205;49.678;6.560;2022-07-06T06:22:31;100861.00;;;19.80
20092;BMP180;10205;49.678;6.560;2022-07-06T06:24:58;100858.00;;;19.80
20092;BMP180;10205;49.678;6.560;2022-07-06T06:27:26;100860.00;;;19.80
20092;BMP180;10205;49.678;6.560;2022-07-06T06:29:53;100859.00;;;19.90
20092;BMP180;10205;49.678;6.560;2022-07-06T06:32:20;100857.00;;;20.00
20092;BMP180;10205;49.678;6.560;2022-07-06T06:34:48;100853.00;;;20.00
20092;BMP180;10205;49.678;6.560;2022-07-06T06:37:15;100866.00;;;20.10
20092;BMP180;10205;49.678;6.560;2022-07-06T06:39:42;100864.00;;;20.10
20092;BMP180;10205;49.678;6.560;2022-07-06T06:42:09;100858.00;;;20.20
20092;BMP180;10205;49.678;6.560;2022-07-06T06:44:37;100851.00;;;20.20
20092;BMP180;10205;49.678;6.560;2022-07-06T06:47:05;100867.00;;;20.30
20092;BMP180;10205;49.678;6.560;2022-07-06T06:49:32;100874.00;;;20.30
20092;BMP180;10205;49.678;6.560;2022-07-06T06:51:59;100881.00;;;20.40
20092;BMP180;10205;49.678;6.560;2022-07-06T06:54:26;100878.00;;;20.50
20092;BMP180;10205;49.678;6.560;2022-07-06T06:56:53;100875.00;;;20.50
20092;BMP180;10205;49.678;6.560;2022-07-06T06:59:20;100880.00;;;20.60
20092;BMP180;10205;49.678;6.560;2022-07-06T07:01:49;100883.00;;;20.60
20092;BMP180;10205;49.678;6.560;2022-07-06T07:04:16;100880.00;;;20.70
20092;BMP180;10205;49.678;6.560;2022-07-06T07:06:43;100890.00;;;20.70
20092;BMP180;10205;49.678;6.560;2022-07-06T07:09:10;100884.00;;;20.70
20092;BMP180;10205;49.678;6.560;2022-07-06T07:11:37;100887.00;;;20.70
20092;BMP180;10205;49.678;6.560;2022-07-06T07:14:04;100886.00;;;20.70
20092;BMP180;10205;49.678;6.560;2022-07-06T07:16:32;100890.00;;;20.70
20092;BMP180;10205;49.678;6.560;2022-07-06T07:19:00;100883.00;;;20.70
20092;BMP180;10205;49.678;6.560;2022-07-06T07:21:27;100889.00;;;20.60
20092;BMP180;10205;49.678;6.560;2022-07-06T07:23:54;100880.00;;;20.60
20092;BMP180;10205;49.678;6.560;2022-07-06T07:26:21;100887.00;;;20.60
20092;BMP180;10205;49.678;6.560;2022-07-06T07:28:48;100884.00;;;20.60
20092;BMP180;10205;49.678;6.560;2022-07-06T07:31:15;100888.00;;;20.60
20092;BMP180;10205;49.678;6.560;2022-07-06T07:33:43;100885.00;;;20.50
20092;BMP180;10205;49.678;6.560;2022-07-06T07:36:11;100897.00;;;20.50
20092;BMP180;10205;49.678;6.560;2022-07-06T07:38:38;100883.00;;;20.50
20092;BMP180;10205;49.678;6.560;2022-07-06T07:41:05;100883.00;;;20.50
20092;BMP180;10205;49.678;6.560;2022-07-06T07:43:32;100888.00;;;20.50
20092;BMP180;10205;49.678;6.560;2022-07-06T07:45:59;100894.00;;;20.60
20092;BMP180;10205;49.678;6.560;2022-07-06T07:48:27;100894.00;;;20.60
20092;BMP180;10205;49.678;6.560;2022-07-06T07:50:54;100892.00;;;20.60
20092;BMP180;10205;49.678;6.560;2022-07-06T07:53:22;100888.00;;;20.70
20092;BMP180;10205;49.678;6.560;2022-07-06T07:55:49;100903.00;;;20.70
20092;BMP180;10205;49.678;6.560;2022-07-06T07:58:16;100884.00;;;20.70
20092;BMP180;10205;49.678;6.560;2022-07-06T08:00:43;100881.00;;;20.70
20092;BMP180;10205;49.678;6.560;2022-07-06T08:03:11;100894.00;;;20.80
20092;BMP180;10205;49.678;6.560;2022-07-06T08:05:38;100880.00;;;20.80
20092;BMP180;10205;49.678;6.560;2022-07-06T08:08:06;100882.00;;;20.80
20092;BMP180;10205;49.678;6.560;2022-07-06T08:10:34;100887.00;;;20.80
20092;BMP180;10205;49.678;6.560;2022-07-06T08:13:01;100880.00;;;20.90
20092;BMP180;10205;49.678;6.560;2022-07-06T08:15:28;100868.00;;;20.90
20092;BMP180;10205;49.678;6.560;2022-07-06T08:17:57;100878.00;;;21.00
20092;BMP180;10205;49.678;6.560;2022-07-06T08:20:24;100875.00;;;21.10
20092;BMP180;10205;49.678;6.560;2022-07-06T08:22:51;100856.00;;;21.10
20092;BMP180;10205;49.678;6.560;2022-07-06T08:25:18;100868.00;;;21.20
20092;BMP180;10205;49.678;6.560;2022-07-06T08:27:47;100881.00;;;21.30
20092;BMP180;10205;49.678;6.560;2022-07-06T08:30:14;100870.00;;;21.40
20092;BMP180;10205;49.678;6.560;2022-07-06T08:32:42;100872.00;;;21.50
20092;BMP180;10205;49.678;6.560;2022-07-06T08:35:10;100874.00;;;21.60
20092;BMP180;10205;49.678;6.560;2022-07-06T08:37:37;100877.00;;;21.70
20092;BMP180;10205;49.678;6.560;2022-07-06T08:40:06;100874.00;;;21.90
20092;BMP180;10205;49.678;6.560;2022-07-06T08:42:35;100865.00;;;21.90
20092;BMP180;10205;49.678;6.560;2022-07-06T08:45:07;100870.00;;;22.00
20092;BMP180;10205;49.678;6.560;2022-07-06T08:47:36;100873.00;;;22.10
20092;BMP180;10205;49.678;6.560;2022-07-06T08:50:05;100872.00;;;22.10
20092;BMP180;10205;49.678;6.560;2022-07-06T08:52:34;100877.00;;;22.10
20092;BMP180;10205;49.678;6.560;2022-07-06T08:55:03;100869.00;;;22.20
20092;BMP180;10205;49.678;6.560;2022-07-06T08:57:31;100886.00;;;22.20
20092;BMP180;10205;49.678;6.560;2022-07-06T08:59:59;100890.00;;;22.30
20092;BMP180;10205;49.678;6.560;2022-07-06T09:02:28;100881.00;;;22.30
20092;BMP180;10205;49.678;6.560;2022-07-06T09:04:56;100895.00;;;22.30
20092;BMP180;10205;49.678;6.560;2022-07-06T09:07:27;100888.00;;;22.30
20092;BMP180;10205;49.678;6.560;2022-07-06T09:09:55;100873.00;;;22.30
20092;BMP180;10205;49.678;6.560;2022-07-06T09:12:26;100886.00;;;22.30
20092;BMP180;10205;49.678;6.560;2022-07-06T09:14:55;100879.00;;;22.30
20092;BMP180;10205;49.678;6.560;2022-07-06T09:17:27;100879.00;;;22.40
20092;BMP180;10205;49.678;6.560;2022-07-06T09:19:56;100882.00;;;22.50
20092;BMP180;10205;49.678;6.560;2022-07-06T09:22:28;100886.00;;;22.50
20092;BMP180;10205;49.678;6.560;2022-07-06T09:25:04;100866.00;;;22.60
20092;BMP180;10205;49.678;6.560;2022-07-06T09:27:36;100878.00;;;22.70
20092;BMP180;10205;49.678;6.560;2022-07-06T09:30:06;100876.00;;;22.70
20092;BMP180;10205;49.678;6.560;2022-07-06T09:32:41;100884.00;;;22.70
20092;BMP180;10205;49.678;6.560;2022-07-06T09:35:09;100875.00;;;22.90
20092;BMP180;10205;49.678;6.560;2022-07-06T09:37:45;100873.00;;;22.90
20092;BMP180;10205;49.678;6.560;2022-07-06T09:40:16;100875.00;;;22.90
20092;BMP180;10205;49.678;6.560;2022-07-06T09:42:45;100877.00;;;22.90
20092;BMP180;10205;49.678;6.560;2022-07-06T09:45:12;100871.00;;;22.90
20092;BMP180;10205;49.678;6.560;2022-07-06T09:47:47;100870.00;;;22.90
20092;BMP180;10205;49.678;6.560;2022-07-06T09:50:16;100867.00;;;23.00
20092;BMP180;10205;49.678;6.560;2022-07-06T09:52:53;100869.00;;;23.10
20092;BMP180;10205;49.678;6.560;2022-07-06T09:55:22;100861.00;;;23.10
20092;BMP180;10205;49.678;6.560;2022-07-06T09:57:53;100868.00;;;23.20
20092;BMP180;10205;49.678;6.560;2022-07-06T10:00:21;100867.00;;;23.20
20092;BMP180;10205;49.678;6.560;2022-07-06T10:02:51;100863.00;;;23.30
20092;BMP180;10205;49.678;6.560;2022-07-06T10:05:21;100873.00;;;23.30
20092;BMP180;10205;49.678;6.560;2022-07-06T10:07:56;100865.00;;;23.40
20092;BMP180;10205;49.678;6.560;2022-07-06T10:10:28;100875.00;;;23.50
20092;BMP180;10205;49.678;6.560;2022-07-06T10:12:56;100861.00;;;23.50
20092;BMP180;10205;49.678;6.560;2022-07-06T10:15:26;100877.00;;;23.50
20092;BMP180;10205;49.678;6.560;2022-07-06T10:17:56;100877.00;;;23.50
20092;BMP180;10205;49.678;6.560;2022-07-06T10:20:23;100853.00;;;23.50
20092;BMP180;10205;49.678;6.560;2022-07-06T10:22:52;100867.00;;;23.40
20092;BMP180;10205;49.678;6.560;2022-07-06T10:25:19;100851.00;;;23.50
20092;BMP180;10205;49.678;6.560;2022-07-06T10:27:48;100872.00;;;23.60
20092;BMP180;10205;49.678;6.560;2022-07-06T10:30:15;100888.00;;;23.60
20092;BMP180;10205;49.678;6.560;2022-07-06T10:32:48;100868.00;;;23.60
20092;BMP180;10205;49.678;6.560;2022-07-06T10:35:19;100861.00;;;23.70
20092;BMP180;10205;49.678;6.560;2022-07-06T10:38:03;100873.00;;;23.70
20092;BMP180;10205;49.678;6.560;2022-07-06T10:40:32;100848.00;;;23.80
20092;BMP180;10205;49.678;6.560;2022-07-06T10:43:16;100852.00;;;23.80
20092;BMP180;10205;49.678;6.560;2022-07-06T10:45:51;100865.00;;;23.90
20092;BMP180;10205;49.678;6.560;2022-07-06T10:48:22;100849.00;;;23.90
20092;BMP180;10205;49.678;6.560;2022-07-06T10:50:53;100858.00;;;24.00
20092;BMP180;10205;49.678;6.560;2022-07-06T10:53:25;100844.00;;;24.00
20092;BMP180;10205;49.678;6.560;2022-07-06T10:55:54;100855.00;;;24.10
20092;BMP180;10205;49.678;6.560;2022-07-06T10:58:46;100856.00;;;24.20
20092;BMP180;10205;49.678;6.560;2022-07-06T11:01:15;100848.00;;;24.20
20092;BMP180;10205;49.678;6.560;2022-07-06T11:03:44;100855.00;;;24.30
20092;BMP180;10205;49.678;6.560;2022-07-06T11:06:15;100852.00;;;24.40
20092;BMP180;10205;49.678;6.560;2022-07-06T11:08:54;100838.00;;;24.60
20092;BMP180;10205;49.678;6.560;2022-07-06T11:11:25;100837.00;;;24.70
20092;BMP180;10205;49.678;6.560;2022-07-06T11:13:57;100837.00;;;24.80
20092;BMP180;10205;49.678;6.560;2022-07-06T11:16:27;100843.00;;;24.90
20092;BMP180;10205;49.678;6.560;2022-07-06T11:19:07;100843.00;;;24.90
20092;BMP180;10205;49.678;6.560;2022-07-06T11:21:45;100838.00;;;24.90
20092;BMP180;10205;49.678;6.560;2022-07-06T11:24:16;100828.00;;;25.00
20092;BMP180;10205;49.678;6.560;2022-07-06T11:26:46;100835.00;;;25.00
20092;BMP180;10205;49.678;6.560;2022-07-06T11:29:16;100849.00;;;25.00
20092;BMP180;10205;49.678;6.560;2022-07-06T11:31:46;100843.00;;;25.00
20092;BMP180;10205;49.678;6.560;2022-07-06T11:34:18;100811.00;;;25.00
20092;BMP180;10205;49.678;6.560;2022-07-06T11:36:49;100806.00;;;25.10
20092;BMP180;10205;49.678;6.560;2022-07-06T11:39:21;100813.00;;;25.10
20092;BMP180;10205;49.678;6.560;2022-07-06T11:41:48;100815.00;;;25.20
20092;BMP180;10205;49.678;6.560;2022-07-06T11:44:15;100819.00;;;25.30
20092;BMP180;10205;49.678;6.560;2022-07-06T11:46:42;100821.00;;;25.30
20092;BMP180;10205;49.678;6.560;2022-07-06T11:49:09;100817.00;;;25.40
20092;BMP180;10205;49.678;6.560;2022-07-06T11:51:39;100812.00;;;25.50
20092;BMP180;10205;49.678;6.560;2022-07-06T11:54:14;100819.00;;;25.50
20092;BMP180;10205;49.678;6.560;2022-07-06T11:56:48;100821.00;;;25.50
20092;BMP180;10205;49.678;6.560;2022-07-06T11:59:16;100819.00;;;25.60
20092;BMP180;10205;49.678;6.560;2022-07-06T12:01:43;100815.00;;;25.70
20092;BMP180;10205;49.678;6.560;2022-07-06T12:04:11;100819.00;;;25.80
20092;BMP180;10205;49.678;6.560;2022-07-06T12:06:38;100798.00;;;25.90
20092;BMP180;10205;49.678;6.560;2022-07-06T12:09:05;100806.00;;;26.00
20092;BMP180;10205;49.678;6.560;2022-07-06T12:11:36;100786.00;;;26.10
20092;BMP180;10205;49.678;6.560;2022-07-06T12:14:13;100788.00;;;26.30
20092;BMP180;10205;49.678;6.560;2022-07-06T12:16:41;100793.00;;;26.30
20092;BMP180;10205;49.678;6.560;2022-07-06T12:19:08;100803.00;;;26.30
20092;BMP180;10205;49.678;6.560;2022-07-06T12:21:44;100798.00;;;26.40
20092;BMP180;10205;49.678;6.560;2022-07-06T12:24:21;100805.00;;;26.40
20092;BMP180;10205;49.678;6.560;2022-07-06T12:26:53;100801.00;;;26.40
20092;BMP180;10205;49.678;6.560;2022-07-06T12:29:21;100803.00;;;26.50
20092;BMP180;10205;49.678;6.560;2022-07-06T12:31:51;100772.00;;;26.30
20092;BMP180;10205;49.678;6.560;2022-07-06T12:34:20;100798.00;;;26.60
20092;BMP180;10205;49.678;6.560;2022-07-06T12:36:50;100801.00;;;26.60
20092;BMP180;10205;49.678;6.560;2022-07-06T12:39:19;100798.00;;;26.60
20092;BMP180;10205;49.678;6.560;2022-07-06T12:41:50;100798.00;;;26.80
20092;BMP180;10205;49.678;6.560;2022-07-06T12:44:20;100799.00;;;26.80
20092;BMP180;10205;49.678;6.560;2022-07-06T12:46:50;100790.00;;;26.90
20092;BMP180;10205;49.678;6.560;2022-07-06T12:49:20;100799.00;;;26.80
20092;BMP180;10205;49.678;6.560;2022-07-06T12:51:57;100797.00;;;26.90
20092;BMP180;10205;49.678;6.560;2022-07-06T12:54:27;100799.00;;;26.90
20092;BMP180;10205;49.678;6.560;2022-07-06T12:57:10;100803.00;;;26.90
20092;BMP180;10205;49.678;6.560;2022-07-06T12:59:42;100803.00;;;26.90
20092;BMP180;10205;49.678;6.560;2022-07-06T13:02:18;100793.00;;;27.00
20092;BMP180;10205;49.678;6.560;2022-07-06T13:04:56;100800.00;;;27.00
20092;BMP180;10205;49.678;6.560;2022-07-06T13:07:25;100791.00;;;27.00
20092;BMP180;10205;49.678;6.560;2022-07-06T13:09:54;100789.00;;;27.00
20092;BMP180;10205;49.678;6.560;2022-07-06T13:12:23;100806.00;;;27.10
20092;BMP180;10205;49.678;6.560;2022-07-06T13:14:51;100793.00;;;27.10
20092;BMP180;10205;49.678;6.560;2022-07-06T13:17:25;100789.00;;;27.00
20092;BMP180;10205;49.678;6.560;2022-07-06T13:20:00;100782.00;;;27.00
20092;BMP180;10205;49.678;6.560;2022-07-06T13:22:28;100790.00;;;27.00
20092;BMP180;10205;49.678;6.560;2022-07-06T13:24:55;100792.00;;;27.00
20092;BMP180;10205;49.678;6.560;2022-07-06T13:27:24;100772.00;;;27.00
20092;BMP180;10205;49.678;6.560;2022-07-06T13:29:51;100777.00;;;27.00
20092;BMP180;10205;49.678;6.560;2022-07-06T13:32:19;100783.00;;;27.00
20092;BMP180;10205;49.678;6.560;2022-07-06T13:35:11;100770.00;;;26.90
20092;BMP180;10205;49.678;6.560;2022-07-06T13:37:56;100760.00;;;26.90
20092;BMP180;10205;49.678;6.560;2022-07-06T13:40:48;100775.00;;;26.80
20092;BMP180;10205;49.678;6.560;2022-07-06T13:43:17;100770.00;;;26.80
20092;BMP180;10205;49.678;6.560;2022-07-06T13:45:45;100769.00;;;26.80
20092;BMP180;10205;49.678;6.560;2022-07-06T13:48:13;100765.00;;;26.80
20092;BMP180;10205;49.678;6.560;2022-07-06T13:50:40;100761.00;;;26.80
20092;BMP180;10205;49.678;6.560;2022-07-06T13:53:07;100759.00;;;26.80
20092;BMP180;10205;49.678;6.560;2022-07-06T13:55:35;100758.00;;;26.90
20092;BMP180;10205;49.678;6.560;2022-07-06T13:58:02;100757.00;;;26.80
20092;BMP180;10205;49.678;6.560;2022-07-06T14:00:31;100754.00;;;26.80
20092;BMP180;10205;49.678;6.560;2022-07-06T14:02:58;100761.00;;;26.90
20092;BMP180;10205;49.678;6.560;2022-07-06T14:05:28;100750.00;;;26.90